createdAt,value
2018-11-20T00:02:49.899Z,5.70
2018-11-20T00:05:57.021Z,6.00
2018-11-20T00:09:04.172Z,5.53
2018-11-20T00:12:11.536Z,5.60
2018-11-20T00:15:18.672Z,6.30
2018-11-20T00:18:25.817Z,5.80
2018-11-20T00:21:32.939Z,5.70
2018-11-20T00:24:30.905Z,5.20
2018-11-20T00:27:38.028Z,5.30
2018-11-20T00:30:45.171Z,5.62
2018-11-20T00:33:52.316Z,5.50
2018-11-20T00:36:59.462Z,5.70
2018-11-20T00:40:06.601Z,5.50
2018-11-20T00:43:13.740Z,6.30
2018-11-20T00:46:11.371Z,5.90
2018-11-20T00:49:18.506Z,5.97
2018-11-20T00:52:19.539Z,6.00
2018-11-20T00:55:45.798Z,6.17
2018-11-20T00:58:52.924Z,5.80
2018-11-20T01:01:59.191Z,6.13
2018-11-20T01:04:54.411Z,5.83
2018-11-20T01:07:47.453Z,6.50
2018-11-20T01:10:47.474Z,6.03
2018-11-20T01:13:47.396Z,6.70
2018-11-20T01:16:49.998Z,6.58
2018-11-20T01:19:50.281Z,6.53
2018-11-20T01:22:41.030Z,6.90
2018-11-20T01:25:41.104Z,6.15
2018-11-20T01:28:41.031Z,6.80
2018-11-20T01:31:41.290Z,6.90
2018-11-20T01:37:34.947Z,6.70
2018-11-20T01:40:27.194Z,6.75
2018-11-20T01:43:26.542Z,7.20
2018-11-20T01:46:29.777Z,6.83
2018-11-20T01:49:29.141Z,7.08
2018-11-20T01:52:30.301Z,7.37
2018-11-20T01:58:38.041Z,7.33
2018-11-20T02:01:37.254Z,7.72
2018-11-20T02:04:44.383Z,8.00
2018-11-20T02:07:43.401Z,7.90
2018-11-20T02:10:50.529Z,7.83
2018-11-20T02:14:16.737Z,8.63
2018-11-20T02:17:25.311Z,8.23
2018-11-20T02:20:32.464Z,7.55
2018-11-20T02:23:39.607Z,8.35
2018-11-20T02:26:46.737Z,8.50
2018-11-20T02:29:53.878Z,8.58
2018-11-20T02:33:01.009Z,9.03
2018-11-20T02:36:08.130Z,8.60
2018-11-20T02:39:15.292Z,8.55
2018-11-20T02:42:22.432Z,8.78
2018-11-20T02:45:29.579Z,8.58
2018-11-20T02:48:36.732Z,8.80
2018-11-20T02:51:34.027Z,9.35
2018-11-20T02:54:41.371Z,8.83
2018-11-20T02:57:48.485Z,8.50
2018-11-20T03:00:55.630Z,9.10
2018-11-20T03:04:02.780Z,9.55
2018-11-20T03:07:09.906Z,7.93
2018-11-20T03:10:17.059Z,9.18
2018-11-20T03:13:24.345Z,8.85
2018-11-20T03:16:31.718Z,9.20
2018-11-20T03:19:37.979Z,9.78
2018-11-20T03:22:45.103Z,8.90
2018-11-20T03:26:03.524Z,9.00
2018-11-20T03:29:12.425Z,8.50
2018-11-20T03:32:19.556Z,9.20
2018-11-20T03:35:19.786Z,8.65
2018-11-20T03:38:26.920Z,8.78
2018-11-20T03:41:34.081Z,9.08
2018-11-20T03:44:41.291Z,9.17
2018-11-20T03:47:48.431Z,9.38
2018-11-20T03:50:55.590Z,9.30
2018-11-20T03:54:02.970Z,9.70
2018-11-20T03:57:10.141Z,9.95
2018-11-20T04:00:17.294Z,10.08
2018-11-20T04:03:24.741Z,9.85
2018-11-20T04:06:31.880Z,10.45
2018-11-20T04:09:39.023Z,9.70
2018-11-20T04:12:46.148Z,9.93
2018-11-20T04:15:43.780Z,10.48
2018-11-20T04:18:50.914Z,9.40
2018-11-20T04:21:58.042Z,9.48
2018-11-20T04:25:02.966Z,8.73
2018-11-20T04:28:10.108Z,9.27
2018-11-20T04:31:36.283Z,8.50
2018-11-20T04:34:43.415Z,8.50
2018-11-20T04:37:50.580Z,9.40
2018-11-20T04:40:57.726Z,9.60
2018-11-20T04:44:04.872Z,9.28
2018-11-20T04:47:12.019Z,10.30
2018-11-20T04:50:08.273Z,9.05
2018-11-20T04:53:03.984Z,9.80
2018-11-20T04:56:11.110Z,9.15
2018-11-20T04:59:18.263Z,9.08
2018-11-20T05:02:25.411Z,9.73
2018-11-20T05:05:32.553Z,10.10
2018-11-20T05:08:39.732Z,10.55
2018-11-20T05:11:46.870Z,9.48
2018-11-20T05:14:54.007Z,9.98
2018-11-20T05:18:01.155Z,9.55
2018-11-20T05:21:08.334Z,10.30
2018-11-20T05:24:15.742Z,9.70
2018-11-20T05:27:11.318Z,10.68
2018-11-20T05:30:18.518Z,10.45
2018-11-20T05:33:25.643Z,9.43
2018-11-20T05:36:33.069Z,9.20
2018-11-20T05:39:40.218Z,9.48
2018-11-20T05:42:47.438Z,9.80
2018-11-20T05:45:54.579Z,10.13
2018-11-20T05:49:01.720Z,9.98
2018-11-20T05:52:08.874Z,9.03
2018-11-20T05:55:16.339Z,9.23
2018-11-20T05:58:23.490Z,8.93
2018-11-20T06:01:30.636Z,8.80
2018-11-20T06:04:37.770Z,9.83
2018-11-20T06:07:44.937Z,10.17
2018-11-20T06:10:52.088Z,9.70
2018-11-20T06:13:59.237Z,9.78
2018-11-20T06:17:06.384Z,10.00
2018-11-20T06:20:13.505Z,9.30
2018-11-20T06:23:20.647Z,9.78
2018-11-20T06:26:28.042Z,9.68
2018-11-20T06:29:31.953Z,10.33
2018-11-20T06:32:39.095Z,10.20
2018-11-20T06:35:46.252Z,9.60
2018-11-20T06:38:53.426Z,10.00
2018-11-20T06:42:00.625Z,9.08
2018-11-20T06:45:07.811Z,10.30
2018-11-20T06:48:14.944Z,10.40
2018-11-20T06:51:22.068Z,10.68
2018-11-20T06:54:29.248Z,10.18
2018-11-20T06:57:36.485Z,10.40
2018-11-20T07:00:43.601Z,10.32
2018-11-20T07:03:52.113Z,10.28
2018-11-20T07:06:57.966Z,9.55
2018-11-20T07:10:05.094Z,8.85
2018-11-20T07:13:13.526Z,9.73
2018-11-20T07:16:39.705Z,10.28
2018-11-20T07:19:48.247Z,10.20
2018-11-20T07:22:55.379Z,10.70
2018-11-20T07:26:02.535Z,9.73
2018-11-20T07:29:09.727Z,10.23
2018-11-20T07:32:16.867Z,10.10
2018-11-20T07:35:24.020Z,11.00
2018-11-20T07:38:31.247Z,10.00
2018-11-20T07:41:38.306Z,10.08
2018-11-20T07:44:45.496Z,10.10
2018-11-20T07:47:52.630Z,10.72
2018-11-20T07:50:59.766Z,9.90
2018-11-20T07:54:06.917Z,10.75
2018-11-20T07:57:14.053Z,10.70
2018-11-20T08:00:21.210Z,10.10
2018-11-20T08:03:28.365Z,11.35
2018-11-20T08:06:28.337Z,12.00
2018-11-20T08:09:25.586Z,11.50
2018-11-20T08:12:32.736Z,12.28
2018-11-20T08:15:39.944Z,12.03
2018-11-20T08:18:47.024Z,12.45
2018-11-20T08:21:54.173Z,12.10
2018-11-20T08:25:01.301Z,12.30
2018-11-20T08:28:08.456Z,12.75
2018-11-20T08:31:15.764Z,12.45
2018-11-20T08:34:22.925Z,12.53
2018-11-20T08:37:21.823Z,12.97
2018-11-20T08:40:28.946Z,13.60
2018-11-20T08:43:36.111Z,13.72
2018-11-20T08:46:43.274Z,13.05
2018-11-20T08:49:50.449Z,13.70
2018-11-20T08:52:46.542Z,13.18
2018-11-20T08:55:45.395Z,13.72
2018-11-20T08:58:52.557Z,13.67
2018-11-20T09:01:59.685Z,14.35
2018-11-20T09:05:06.849Z,13.93
2018-11-20T09:08:14.006Z,14.05
2018-11-20T09:11:21.160Z,14.75
2018-11-20T09:14:28.302Z,13.73
2018-11-20T09:17:35.440Z,14.55
2018-11-20T09:20:42.599Z,14.75
2018-11-20T09:23:49.987Z,15.00
2018-11-20T09:26:57.115Z,14.60
2018-11-20T09:30:04.259Z,14.45
2018-11-20T09:33:11.411Z,15.65
2018-11-20T09:36:11.181Z,14.60
2018-11-20T09:39:18.348Z,13.90
2018-11-20T09:42:25.623Z,14.40
2018-11-20T09:45:32.218Z,14.55
2018-11-20T09:48:32.814Z,14.27
2018-11-20T09:51:27.433Z,14.47
2018-11-20T09:54:34.580Z,13.62
2018-11-20T09:57:41.723Z,13.68
2018-11-20T10:00:48.987Z,13.90
2018-11-20T10:03:56.253Z,14.03
2018-11-20T10:07:03.356Z,13.13
2018-11-20T10:10:10.499Z,13.32
2018-11-20T10:13:17.756Z,12.78
2018-11-20T10:16:24.917Z,12.03
2018-11-20T10:19:32.074Z,12.90
2018-11-20T10:22:39.202Z,12.85
2018-11-20T10:25:47.300Z,12.45
2018-11-20T10:28:54.290Z,11.70
2018-11-20T10:32:02.637Z,12.65
2018-11-20T10:35:09.796Z,12.10
2018-11-20T10:38:16.911Z,11.88
2018-11-20T10:41:24.050Z,12.30
2018-11-20T10:44:31.804Z,13.48
2018-11-20T10:47:38.942Z,12.45
2018-11-20T10:50:46.173Z,12.15
2018-11-20T10:53:53.320Z,11.78
2018-11-20T10:57:00.465Z,12.00
2018-11-20T11:00:07.656Z,12.00
2018-11-20T11:03:14.787Z,11.78
2018-11-20T11:06:22.038Z,11.30
2018-11-20T11:09:30.123Z,11.38
2018-11-20T11:12:37.338Z,11.97
2018-11-20T11:15:44.423Z,10.68
2018-11-20T11:18:51.802Z,11.65
2018-11-20T11:21:58.975Z,11.43
2018-11-20T11:25:06.111Z,11.57
2018-11-20T11:28:03.627Z,10.70
2018-11-20T11:31:10.767Z,11.05
2018-11-20T11:34:17.972Z,10.32
2018-11-20T11:37:25.122Z,11.20
2018-11-20T11:40:32.276Z,11.43
2018-11-20T11:43:39.412Z,10.93
2018-11-20T11:46:46.565Z,10.50
2018-11-20T11:49:34.649Z,12.82
2018-11-20T11:55:37.149Z,11.00
2018-11-20T11:58:38.172Z,10.75
2018-11-20T12:01:27.853Z,10.20
2018-11-20T12:04:34.473Z,10.70
2018-11-20T12:10:38.428Z,10.50
2018-11-20T12:13:39.067Z,10.78
2018-11-20T12:19:34.337Z,11.37
2018-11-20T12:25:36.153Z,10.40
2018-11-20T12:31:40.080Z,10.75
2018-11-20T12:34:37.604Z,9.90
2018-11-20T12:40:38.053Z,11.53
2018-11-20T12:46:41.042Z,11.20
2018-11-20T12:49:42.314Z,10.95
2018-11-20T12:55:47.141Z,10.93
2018-11-20T12:58:54.115Z,11.40
2018-11-20T13:01:54.725Z,11.75
2018-11-20T13:08:03.506Z,11.70
2018-11-20T13:11:03.542Z,10.78
2018-11-20T13:17:07.004Z,9.98
2018-11-20T13:23:14.498Z,11.65
2018-11-20T13:26:03.754Z,11.38
2018-11-20T13:28:56.209Z,10.80
2018-11-20T13:32:01.705Z,11.80
2018-11-20T13:35:01.000Z,11.25
2018-11-20T13:38:01.034Z,10.93
2018-11-20T13:41:01.183Z,11.53
2018-11-20T13:44:02.429Z,11.30
2018-11-20T13:47:04.038Z,11.90
2018-11-20T13:50:03.478Z,11.85
2018-11-20T13:53:04.502Z,11.90
2018-11-20T13:56:04.523Z,12.82
2018-11-20T13:59:11.876Z,12.30
2018-11-20T14:02:19.012Z,13.23
2018-11-20T14:05:26.139Z,14.53
2018-11-20T14:08:33.482Z,13.62
2018-11-20T14:11:40.620Z,13.32
2018-11-20T14:14:47.774Z,13.72
2018-11-20T14:17:54.913Z,13.07
2018-11-20T14:21:02.068Z,13.38
2018-11-20T14:24:28.354Z,14.50
2018-11-20T14:27:35.499Z,13.22
2018-11-20T14:30:42.665Z,14.28
2018-11-20T14:33:49.801Z,13.83
2018-11-20T14:36:56.946Z,14.30
2018-11-20T14:40:04.092Z,14.80
2018-11-20T14:43:11.238Z,15.45
2018-11-20T14:46:18.391Z,15.38
2018-11-20T14:49:25.509Z,15.32
2018-11-20T14:52:21.752Z,15.40
2018-11-20T14:55:28.927Z,16.00
2018-11-20T14:58:36.057Z,16.12
2018-11-20T15:01:43.199Z,15.57
2018-11-20T15:04:50.358Z,16.02
2018-11-20T15:07:59.291Z,15.53
2018-11-20T15:11:04.676Z,16.35
2018-11-20T15:14:11.831Z,17.00
2018-11-20T15:17:07.249Z,16.32
2018-11-20T15:20:14.409Z,17.90
2018-11-20T15:23:21.544Z,17.25
2018-11-20T15:26:28.692Z,17.10
2018-11-20T15:29:16.759Z,16.73
2018-11-20T15:32:12.256Z,16.67
2018-11-20T15:35:19.384Z,16.30
2018-11-20T15:38:26.534Z,18.48
2018-11-20T15:41:33.690Z,17.30
2018-11-20T15:44:40.842Z,16.82
2018-11-20T15:47:47.979Z,17.23
2018-11-20T15:50:55.176Z,17.15
2018-11-20T15:54:02.352Z,16.67
2018-11-20T15:57:09.523Z,16.35
2018-11-20T16:00:16.665Z,17.20
2018-11-20T16:03:24.173Z,16.30
2018-11-20T16:06:31.554Z,17.30
2018-11-20T16:09:38.706Z,17.13
2018-11-20T16:12:45.868Z,16.27
2018-11-20T16:15:53.016Z,16.67
2018-11-20T16:19:00.158Z,15.98
2018-11-20T16:21:58.889Z,17.37
2018-11-20T16:25:06.038Z,16.97
2018-11-20T16:28:13.201Z,16.70
2018-11-20T16:31:20.317Z,16.40
2018-11-20T16:34:27.744Z,17.60
2018-11-20T16:37:35.095Z,16.60
2018-11-20T16:40:42.297Z,16.23
2018-11-20T16:43:49.446Z,16.48
2018-11-20T16:46:56.576Z,15.93
2018-11-20T16:50:03.714Z,15.90
2018-11-20T16:53:10.844Z,15.60
2018-11-20T16:56:18.004Z,16.57
2018-11-20T16:59:25.161Z,14.13
2018-11-20T17:02:32.574Z,14.53
2018-11-20T17:05:39.707Z,15.70
2018-11-20T17:08:46.853Z,15.70
2018-11-20T17:11:54.012Z,15.05
2018-11-20T17:15:01.178Z,15.13
2018-11-20T17:18:08.309Z,16.23
2018-11-20T17:21:15.471Z,16.52
2018-11-20T17:24:22.605Z,15.63
2018-11-20T17:27:29.752Z,15.95
2018-11-20T17:30:36.928Z,15.50
2018-11-20T17:33:44.066Z,16.07
2018-11-20T17:36:44.939Z,15.75
2018-11-20T17:39:52.093Z,14.50
2018-11-20T17:42:59.244Z,14.80
2018-11-20T17:45:47.336Z,16.45
2018-11-20T17:48:54.518Z,15.03
2018-11-20T17:52:01.701Z,16.10
2018-11-20T17:55:08.828Z,15.40
2018-11-20T17:58:15.963Z,15.32
2018-11-20T18:01:23.102Z,15.80
2018-11-20T18:04:17.743Z,15.32
2018-11-20T18:07:24.908Z,16.40
2018-11-20T18:10:32.045Z,16.32
2018-11-20T18:13:39.188Z,16.35
2018-11-20T18:16:46.328Z,16.93
2018-11-20T18:19:23.674Z,16.50
2018-11-20T18:22:31.095Z,17.95
2018-11-20T18:25:38.273Z,16.80
2018-11-20T18:28:45.452Z,17.02
2018-11-20T18:31:46.531Z,17.73
2018-11-20T18:34:53.671Z,17.35
2018-11-20T18:38:00.787Z,17.27
2018-11-20T18:41:07.957Z,17.12
2018-11-20T18:44:06.015Z,18.60
2018-11-20T18:47:13.180Z,18.70
2018-11-20T18:50:20.302Z,19.70
2018-11-20T18:53:27.457Z,19.45
2018-11-20T18:56:34.606Z,20.27
2018-11-20T18:59:41.750Z,18.62
2018-11-20T19:02:48.912Z,19.70
2018-11-20T19:05:56.049Z,19.60
2018-11-20T19:09:03.194Z,19.73
2018-11-20T19:12:10.344Z,20.43
2018-11-20T19:15:17.745Z,20.65
2018-11-20T19:18:24.908Z,19.30
2018-11-20T19:21:32.065Z,20.75
2018-11-20T19:24:39.203Z,20.15
2018-11-20T19:27:46.330Z,20.27
2018-11-20T19:30:53.494Z,19.12
2018-11-20T19:34:00.645Z,18.40
2018-11-20T19:37:07.814Z,19.52
2018-11-20T19:40:14.960Z,19.42
2018-11-20T19:43:22.175Z,18.70
2018-11-20T19:46:11.524Z,19.48
2018-11-20T19:49:18.664Z,18.40
2018-11-20T19:52:25.808Z,19.60
2018-11-20T19:55:32.949Z,18.70
2018-11-20T19:58:40.329Z,18.25
2018-11-20T20:01:47.461Z,20.30
2018-11-20T20:04:54.846Z,19.35
2018-11-20T20:07:54.826Z,20.32
2018-11-20T20:10:55.642Z,20.12
2018-11-20T20:14:03.046Z,19.55
2018-11-20T20:17:10.175Z,20.00
2018-11-20T20:20:07.074Z,21.65
2018-11-20T20:23:12.759Z,20.60
2018-11-20T20:26:19.929Z,19.90
2018-11-20T20:29:27.063Z,20.93
2018-11-20T20:32:34.443Z,20.72
2018-11-20T20:35:41.559Z,20.25
2018-11-20T20:38:48.709Z,20.35
2018-11-20T20:41:55.858Z,21.80
2018-11-20T20:45:02.992Z,20.70
2018-11-20T20:48:10.126Z,21.73
2018-11-20T20:51:17.243Z,21.48
2018-11-20T20:54:24.812Z,21.55
2018-11-20T20:57:31.947Z,21.65
2018-11-20T21:00:39.091Z,20.90
2018-11-20T21:03:46.231Z,20.40
2018-11-20T21:06:53.363Z,20.52
2018-11-20T21:10:00.491Z,20.70
2018-11-20T21:13:07.647Z,20.02
2018-11-20T21:16:14.784Z,20.10
2018-11-20T21:19:14.223Z,21.13
2018-11-20T21:22:21.386Z,20.87
2018-11-20T21:25:28.503Z,20.62
2018-11-20T21:28:35.650Z,20.90
2018-11-20T21:31:42.791Z,20.08
2018-11-20T21:34:55.174Z,19.00
2018-11-20T21:37:57.103Z,20.68
2018-11-20T21:41:04.277Z,19.90
2018-11-20T21:44:08.967Z,20.17
2018-11-20T21:47:16.083Z,20.02
2018-11-20T21:50:23.258Z,20.10
2018-11-20T21:53:30.413Z,19.92
2018-11-20T21:56:37.796Z,19.73
2018-11-20T22:00:03.983Z,20.50
2018-11-20T22:03:11.103Z,20.55
2018-11-20T22:06:18.256Z,19.80
2018-11-20T22:09:27.472Z,19.67
2018-11-20T22:12:34.635Z,20.35
2018-11-20T22:15:41.771Z,19.10
2018-11-20T22:18:45.926Z,19.82
2018-11-20T22:21:42.078Z,20.00
2018-11-20T22:24:49.465Z,19.98
2018-11-20T22:27:56.604Z,21.10
2018-11-20T22:30:49.802Z,20.35
2018-11-20T22:33:39.395Z,20.65
2018-11-20T22:36:39.973Z,21.02
2018-11-20T22:39:40.100Z,20.77
2018-11-20T22:42:41.444Z,22.20
2018-11-20T22:45:34.752Z,20.80
2018-11-20T22:48:36.498Z,21.57
2018-11-20T22:51:36.349Z,20.72
2018-11-20T22:54:33.483Z,22.37
2018-11-20T22:57:30.535Z,21.25
2018-11-20T23:00:30.615Z,22.13
2018-11-20T23:03:31.859Z,22.05
2018-11-20T23:06:32.673Z,21.50
2018-11-20T23:09:13.847Z,22.13
2018-11-20T23:11:54.337Z,22.42
2018-11-20T23:14:35.631Z,21.97
2018-11-20T23:17:15.001Z,21.80
2018-11-20T23:20:03.359Z,22.45
2018-11-20T23:22:51.701Z,22.60
2018-11-20T23:25:40.046Z,21.30
2018-11-20T23:28:28.625Z,22.82
2018-11-20T23:31:16.953Z,21.80
2018-11-20T23:34:05.829Z,21.48
2018-11-20T23:36:54.185Z,22.10
2018-11-20T23:39:42.528Z,21.97
2018-11-20T23:42:30.874Z,20.97
2018-11-20T23:45:19.200Z,21.17
2018-11-20T23:48:07.525Z,21.90
2018-11-20T23:50:55.864Z,21.65
2018-11-20T23:53:44.195Z,20.55
2018-11-20T23:56:32.809Z,20.80
2018-11-20T23:59:21.120Z,22.02
